createdAt,value
2019-04-19T00:00:56.977Z,11.2
2019-04-19T00:01:59.480Z,15.5
2019-04-19T00:02:54.640Z,14.4
2019-04-19T00:03:58.103Z,10.2
2019-04-19T00:04:59.958Z,9.1
2019-04-19T00:05:56.470Z,9.4
2019-04-19T00:07:05.552Z,9.6
2019-04-19T00:08:16.704Z,8.9
2019-04-19T00:09:12.932Z,9.2
2019-04-19T00:10:06.945Z,9.2
2019-04-19T00:11:14.036Z,8.4
2019-04-19T00:12:17.263Z,8.8
2019-04-19T00:13:04.656Z,9.4
2019-04-19T00:14:02.125Z,9.5
2019-04-19T00:15:03.506Z,8.8
2019-04-19T00:16:04.566Z,9.4
2019-04-19T00:17:08.129Z,9.7
2019-04-19T00:18:09.095Z,10.4
2019-04-19T00:19:26.841Z,13.1
2019-04-19T00:20:31.339Z,19.9
2019-04-19T00:21:24.634Z,14.6
2019-04-19T00:22:26.466Z,11.2
2019-04-19T00:23:21.599Z,10.5
2019-04-19T00:24:12.109Z,11.4
2019-04-19T00:25:11.771Z,10.3
2019-04-19T00:26:12.745Z,10.7
2019-04-19T00:27:14.005Z,9.9
2019-04-19T00:28:23.014Z,9.9
2019-04-19T00:29:21.982Z,9.9
2019-04-19T00:30:29.949Z,10.0
2019-04-19T00:31:29.790Z,10.0
2019-04-19T00:32:30.317Z,9.9
2019-04-19T00:33:27.163Z,9.0
2019-04-19T00:34:18.772Z,9.7
2019-04-19T00:35:18.694Z,9.7
2019-04-19T00:36:19.880Z,9.5
2019-04-19T00:37:20.650Z,9.3
2019-04-19T00:38:38.243Z,10.0
2019-04-19T00:39:35.628Z,9.0
2019-04-19T00:40:39.034Z,9.7
2019-04-19T00:41:36.960Z,9.6
2019-04-19T00:42:41.270Z,9.3
2019-04-19T00:43:48.129Z,9.1
2019-04-19T00:44:49.131Z,9.5
2019-04-19T00:45:41.682Z,10.1
2019-04-19T00:46:50.687Z,10.1
2019-04-19T00:47:42.834Z,9.9
2019-04-19T00:48:47.460Z,9.8
2019-04-19T00:49:42.220Z,10.6
2019-04-19T00:50:51.134Z,10.0
2019-04-19T00:51:54.037Z,9.6
2019-04-19T00:52:51.866Z,10.0
2019-04-19T00:53:42.977Z,10.2
2019-04-19T00:54:50.594Z,10.2
2019-04-19T00:55:48.499Z,9.9
2019-04-19T00:56:47.030Z,10.0
2019-04-19T00:57:45.701Z,9.8
2019-04-19T00:58:48.371Z,10.0
2019-04-19T00:59:45.264Z,10.7
2019-04-19T01:00:41.804Z,10.1
2019-04-19T01:01:41.881Z,10.3
2019-04-19T01:02:47.371Z,10.7
2019-04-19T01:03:46.256Z,10.5
2019-04-19T01:04:43.344Z,10.0
2019-04-19T01:05:52.453Z,9.3
2019-04-19T01:06:50.812Z,10.1
2019-04-19T01:07:45.541Z,10.7
2019-04-19T01:08:56.625Z,10.4
2019-04-19T01:10:08.583Z,10.7
2019-04-19T01:11:06.204Z,10.6
2019-04-19T01:12:05.643Z,10.1
2019-04-19T01:13:04.094Z,10.2
2019-04-19T01:14:01.372Z,9.9
2019-04-19T01:15:05.739Z,9.4
2019-04-19T01:16:03.113Z,10.1
2019-04-19T01:17:09.649Z,10.0
2019-04-19T01:18:10.658Z,10.0
2019-04-19T01:19:00.406Z,9.1
2019-04-19T01:20:01.404Z,10.3
2019-04-19T01:20:56.283Z,10.1
2019-04-19T01:21:55.837Z,10.0
2019-04-19T01:23:03.909Z,8.9
2019-04-19T01:24:00.402Z,9.7
2019-04-19T01:24:58.406Z,9.3
2019-04-19T01:26:03.270Z,9.2
2019-04-19T01:27:00.551Z,10.4
2019-04-19T01:28:06.197Z,10.2
2019-04-19T01:29:06.457Z,10.1
2019-04-19T01:30:02.932Z,10.7
2019-04-19T01:31:10.145Z,10.6
2019-04-19T01:32:09.676Z,10.4
2019-04-19T01:33:05.830Z,10.4
2019-04-19T01:34:11.993Z,10.5
2019-04-19T01:35:10.182Z,10.8
2019-04-19T01:36:06.586Z,10.2
2019-04-19T01:37:11.319Z,9.8
2019-04-19T01:38:09.875Z,10.1
2019-04-19T01:39:23.198Z,9.9
2019-04-19T01:40:21.077Z,10.8
2019-04-19T01:41:26.855Z,10.0
2019-04-19T01:42:32.248Z,10.4
2019-04-19T01:43:27.857Z,9.9
2019-04-19T01:44:42.495Z,10.1
2019-04-19T01:45:29.290Z,10.1
2019-04-19T01:46:31.703Z,9.8
2019-04-19T01:47:38.587Z,10.0
2019-04-19T01:48:34.179Z,9.9
2019-04-19T01:49:29.961Z,10.7
2019-04-19T01:50:38.270Z,10.0
2019-04-19T01:51:38.894Z,9.8
2019-04-19T01:52:47.548Z,10.1
2019-04-19T01:53:33.559Z,10.4
2019-04-19T01:54:39.633Z,10.1
2019-04-19T01:55:29.385Z,10.1
2019-04-19T01:56:23.571Z,9.8
2019-04-19T01:57:24.315Z,9.8
2019-04-19T01:58:25.568Z,10.1
2019-04-19T01:59:33.276Z,10.3
2019-04-19T02:00:35.690Z,10.8
2019-04-19T02:01:30.037Z,10.4
2019-04-19T02:02:28.280Z,10.6
2019-04-19T02:03:31.371Z,10.5
2019-04-19T02:04:31.951Z,10.0
2019-04-19T02:05:29.733Z,10.5
2019-04-19T02:06:36.443Z,10.1
2019-04-19T02:07:32.773Z,10.9
2019-04-19T02:08:33.147Z,9.7
2019-04-19T02:09:48.924Z,10.0
2019-04-19T02:10:44.005Z,9.8
2019-04-19T02:11:41.999Z,10.0
2019-04-19T02:12:44.764Z,11.2
2019-04-19T02:13:41.693Z,10.6
2019-04-19T02:14:46.518Z,10.0
2019-04-19T02:15:42.468Z,9.2
2019-04-19T02:16:38.650Z,10.5
2019-04-19T02:17:43.533Z,9.7
2019-04-19T02:18:39.081Z,10.8
2019-04-19T02:19:47.982Z,10.1
2019-04-19T02:20:44.389Z,9.8
2019-04-19T02:21:45.157Z,10.4
2019-04-19T02:22:42.743Z,10.2
2019-04-19T02:23:49.587Z,10.3
2019-04-19T02:24:47.727Z,11.1
2019-04-19T02:25:43.660Z,9.6
2019-04-19T02:26:50.698Z,9.7
2019-04-19T02:27:47.457Z,9.8
2019-04-19T02:28:45.835Z,10.1
2019-04-19T02:29:55.188Z,10.0
2019-04-19T02:31:07.859Z,10.6
2019-04-19T02:32:13.631Z,10.3
2019-04-19T02:33:12.837Z,9.7
2019-04-19T02:34:27.615Z,10.2
2019-04-19T02:35:11.836Z,9.8
2019-04-19T02:36:15.899Z,9.3
2019-04-19T02:38:21.573Z,10.0
2019-04-19T02:39:30.979Z,10.0
2019-04-19T02:40:39.553Z,10.0
2019-04-19T02:43:32.249Z,11.6
2019-04-19T02:44:29.482Z,11.8
2019-04-19T02:45:54.302Z,12.2
2019-04-19T02:47:01.137Z,13.2
2019-04-19T02:47:44.549Z,11.2
2019-04-19T02:48:48.935Z,10.9
2019-04-19T02:51:01.493Z,10.2
2019-04-19T02:51:39.141Z,9.8
2019-04-19T02:52:39.074Z,9.7
2019-04-19T02:53:41.150Z,10.0
2019-04-19T02:54:42.177Z,10.3
2019-04-19T02:55:43.058Z,10.0
2019-04-19T02:56:52.132Z,9.9
2019-04-19T02:58:45.305Z,10.4
2019-04-19T02:59:58.314Z,10.0
2019-04-19T03:01:58.311Z,9.5
2019-04-19T03:03:03.573Z,8.8
2019-04-19T03:03:50.340Z,9.4
2019-04-19T03:05:47.425Z,9.5
2019-04-19T03:06:36.743Z,9.6
2019-04-19T03:07:30.251Z,10.0
2019-04-19T03:08:31.337Z,9.5
2019-04-19T03:09:37.639Z,9.9
2019-04-19T03:10:42.964Z,9.2
2019-04-19T03:11:50.253Z,9.6
2019-04-19T03:12:51.632Z,8.8
2019-04-19T03:13:49.021Z,9.7
2019-04-19T03:15:06.955Z,10.3
2019-04-19T03:15:48.977Z,10.3
2019-04-19T03:17:01.012Z,9.3
2019-04-19T03:17:58.557Z,9.0
2019-04-19T03:18:51.774Z,9.3
2019-04-19T03:19:55.617Z,9.6
2019-04-19T03:20:51.815Z,9.6
2019-04-19T03:21:52.164Z,9.6
2019-04-19T03:23:01.776Z,9.9
2019-04-19T03:23:59.967Z,10.0
2019-04-19T03:25:02.867Z,10.1
2019-04-19T03:25:54.432Z,9.6
2019-04-19T03:26:54.168Z,9.5
2019-04-19T03:27:55.861Z,9.9
2019-04-19T03:28:50.279Z,9.7
2019-04-19T03:29:50.278Z,10.0
2019-04-19T03:31:14.487Z,9.4
2019-04-19T03:32:24.091Z,9.8
2019-04-19T03:33:17.077Z,10.1
2019-04-19T03:34:28.554Z,9.5
2019-04-19T03:35:06.427Z,10.1
2019-04-19T03:37:14.808Z,9.8
2019-04-19T03:38:10.564Z,9.0
2019-04-19T03:39:22.962Z,10.4
2019-04-19T03:41:29.599Z,9.4
2019-04-19T03:42:20.059Z,11.1
2019-04-19T03:43:26.596Z,9.8
2019-04-19T03:44:23.447Z,10.5
2019-04-19T03:45:22.043Z,10.5
2019-04-19T03:46:18.763Z,9.9
2019-04-19T03:47:30.120Z,10.5
2019-04-19T03:48:29.706Z,10.8
2019-04-19T03:50:30.305Z,11.0
2019-04-19T03:51:35.817Z,9.9
2019-04-19T03:52:32.099Z,10.3
2019-04-19T03:53:40.015Z,10.7
2019-04-19T03:54:29.823Z,9.9
2019-04-19T03:55:28.639Z,10.8
2019-04-19T03:56:33.148Z,10.3
2019-04-19T03:57:31.324Z,11.1
2019-04-19T03:58:20.615Z,11.2
2019-04-19T03:59:18.686Z,10.3
2019-04-19T04:00:19.539Z,10.7
2019-04-19T04:01:21.361Z,10.0
2019-04-19T04:02:25.799Z,10.6
2019-04-19T04:03:28.214Z,10.4
2019-04-19T04:04:26.555Z,11.4
2019-04-19T04:05:24.274Z,10.1
2019-04-19T04:06:28.796Z,10.8
2019-04-19T04:07:28.677Z,10.6
2019-04-19T04:08:26.294Z,10.7
2019-04-19T04:09:36.604Z,11.0
2019-04-19T04:10:31.110Z,10.9
2019-04-19T04:11:29.804Z,10.2
2019-04-19T04:12:37.956Z,11.1
2019-04-19T04:13:37.376Z,10.6
2019-04-19T04:14:46.214Z,11.0
2019-04-19T04:15:46.699Z,10.7
2019-04-19T04:16:38.995Z,10.1
2019-04-19T04:17:33.378Z,10.9
2019-04-19T04:18:34.339Z,10.0
2019-04-19T04:19:35.631Z,10.9
2019-04-19T04:20:45.906Z,10.3
2019-04-19T04:21:42.971Z,10.7
2019-04-19T04:22:41.755Z,10.7
2019-04-19T04:23:42.991Z,10.4
2019-04-19T04:24:48.782Z,10.6
2019-04-19T04:25:50.799Z,11.3
2019-04-19T04:26:53.111Z,10.9
2019-04-19T04:27:54.454Z,10.5
2019-04-19T04:28:52.806Z,10.8
2019-04-19T04:29:51.793Z,11.1
2019-04-19T04:30:57.290Z,11.2
2019-04-19T04:31:55.901Z,10.9
2019-04-19T04:32:57.429Z,11.1
2019-04-19T04:33:54.511Z,10.7
2019-04-19T04:34:56.735Z,11.2
2019-04-19T04:36:04.532Z,11.3
2019-04-19T04:37:01.767Z,11.1
2019-04-19T04:37:58.098Z,11.0
2019-04-19T04:38:49.271Z,10.8
2019-04-19T04:39:49.392Z,10.7
2019-04-19T04:40:50.631Z,10.5
2019-04-19T04:41:53.921Z,11.7
2019-04-19T04:43:07.398Z,11.1
2019-04-19T04:44:07.891Z,10.9
2019-04-19T04:45:18.551Z,11.1
2019-04-19T04:46:23.566Z,10.7
2019-04-19T04:47:16.560Z,10.9
2019-04-19T04:48:07.760Z,10.7
2019-04-19T04:49:26.950Z,10.7
2019-04-19T04:50:19.551Z,10.2
2019-04-19T04:51:15.405Z,11.4
2019-04-19T04:52:06.499Z,11.0
2019-04-19T04:52:58.621Z,11.0
2019-04-19T04:53:59.500Z,10.7
2019-04-19T04:55:00.915Z,10.9
2019-04-19T04:56:04.166Z,11.0
2019-04-19T04:57:08.892Z,10.8
2019-04-19T04:58:04.291Z,10.9
2019-04-19T04:59:06.412Z,9.8
2019-04-19T05:00:04.644Z,10.4
2019-04-19T05:01:09.066Z,10.5
2019-04-19T05:02:14.958Z,10.2
2019-04-19T05:03:29.618Z,10.9
2019-04-19T05:04:20.269Z,10.5
2019-04-19T05:05:27.794Z,10.6
2019-04-19T05:06:25.938Z,10.5
2019-04-19T05:07:28.719Z,10.5
2019-04-19T05:08:29.564Z,10.4
2019-04-19T05:09:28.153Z,10.4
2019-04-19T05:10:30.705Z,10.6
2019-04-19T05:11:32.798Z,10.6
2019-04-19T05:12:46.659Z,11.0
2019-04-19T05:13:33.270Z,10.9
2019-04-19T05:14:29.168Z,11.0
2019-04-19T05:15:34.503Z,10.7
2019-04-19T05:16:40.523Z,9.4
2019-04-19T05:17:45.976Z,10.4
2019-04-19T05:18:34.598Z,9.9
2019-04-19T05:19:46.340Z,10.0
2019-04-19T05:20:35.747Z,10.2
2019-04-19T05:21:36.348Z,9.9
2019-04-19T05:22:32.650Z,10.1
2019-04-19T05:23:45.385Z,9.8
2019-04-19T05:24:51.493Z,10.0
2019-04-19T05:25:44.529Z,9.1
2019-04-19T05:27:04.726Z,9.0
2019-04-19T05:27:45.484Z,9.8
2019-04-19T05:28:47.922Z,9.7
2019-04-19T05:29:38.296Z,9.5
2019-04-19T05:30:42.195Z,9.6
2019-04-19T05:31:39.604Z,8.9
2019-04-19T05:32:34.910Z,9.3
2019-04-19T05:33:48.022Z,9.1
2019-04-19T05:34:51.457Z,9.9
2019-04-19T05:36:01.752Z,9.8
2019-04-19T05:36:54.967Z,9.7
2019-04-19T05:37:55.384Z,9.5
2019-04-19T05:38:57.357Z,9.4
2019-04-19T05:40:00.672Z,9.5
2019-04-19T05:40:52.723Z,9.6
2019-04-19T05:41:56.621Z,9.6
2019-04-19T05:42:58.252Z,9.4
2019-04-19T05:44:14.277Z,9.4
2019-04-19T05:45:14.282Z,9.7
2019-04-19T05:46:10.997Z,10.1
2019-04-19T05:47:07.742Z,10.1
2019-04-19T05:47:55.889Z,9.7
2019-04-19T05:49:04.110Z,9.7
2019-04-19T05:50:07.516Z,9.6
2019-04-19T05:51:16.691Z,9.3
2019-04-19T05:52:09.208Z,9.8
2019-04-19T05:53:06.929Z,9.5
2019-04-19T05:53:53.073Z,8.5
2019-04-19T05:54:51.437Z,9.0
2019-04-19T05:55:52.100Z,9.5
2019-04-19T05:56:59.370Z,9.3
2019-04-19T05:58:05.774Z,8.8
2019-04-19T05:59:03.671Z,9.2
2019-04-19T06:00:04.922Z,9.9
2019-04-19T06:01:08.855Z,8.9
2019-04-19T06:02:10.239Z,9.6
2019-04-19T06:03:06.633Z,8.9
2019-04-19T06:04:16.999Z,9.5
2019-04-19T06:05:22.278Z,9.3
2019-04-19T06:06:28.403Z,9.7
2019-04-19T06:07:24.524Z,8.9
2019-04-19T06:08:12.288Z,8.9
2019-04-19T06:09:04.597Z,8.5
2019-04-19T06:10:06.534Z,8.7
2019-04-19T06:11:07.570Z,8.4
2019-04-19T06:12:14.192Z,9.4
2019-04-19T06:13:09.739Z,9.2
2019-04-19T06:14:43.305Z,9.1
2019-04-19T06:15:33.378Z,8.7
2019-04-19T06:16:25.753Z,8.6
2019-04-19T06:17:27.853Z,8.8
2019-04-19T06:18:26.116Z,8.2
2019-04-19T06:19:23.600Z,9.6
2019-04-19T06:20:30.540Z,9.3
2019-04-19T06:21:29.130Z,9.8
2019-04-19T06:22:35.439Z,9.0
2019-04-19T06:23:38.689Z,8.9
2019-04-19T06:24:33.963Z,9.3
2019-04-19T06:25:39.464Z,9.6
2019-04-19T06:27:53.104Z,9.2
2019-04-19T06:28:46.066Z,8.7
2019-04-19T06:29:46.093Z,9.1
2019-04-19T06:30:42.694Z,10.4
2019-04-19T06:31:48.742Z,10.2
2019-04-19T06:32:46.019Z,8.9
2019-04-19T06:33:42.953Z,10.1
2019-04-19T06:34:42.718Z,9.3
2019-04-19T06:35:37.350Z,9.0
2019-04-19T06:36:27.113Z,8.7
2019-04-19T06:37:29.906Z,9.3
2019-04-19T06:38:27.382Z,9.2
2019-04-19T06:39:28.755Z,9.5
2019-04-19T06:40:32.780Z,8.9
2019-04-19T06:41:37.805Z,8.8
2019-04-19T06:42:39.180Z,9.8
2019-04-19T06:43:43.097Z,9.1
2019-04-19T06:44:51.811Z,8.8
2019-04-19T06:45:49.244Z,10.1
2019-04-19T06:46:48.655Z,8.8
2019-04-19T06:47:42.873Z,8.9
2019-04-19T06:48:37.824Z,9.4
2019-04-19T06:49:36.376Z,8.8
2019-04-19T06:50:39.613Z,9.5
2019-04-19T06:51:45.374Z,9.2
2019-04-19T06:52:38.448Z,8.9
2019-04-19T06:53:44.475Z,9.6
2019-04-19T06:54:41.641Z,9.2
2019-04-19T06:55:44.953Z,10.2
2019-04-19T06:56:43.169Z,8.6
2019-04-19T06:57:51.352Z,10.0
2019-04-19T06:58:49.923Z,9.4
2019-04-19T06:59:55.101Z,9.4
2019-04-19T07:00:58.580Z,9.7
2019-04-19T07:01:49.295Z,9.8
2019-04-19T07:02:43.936Z,9.2
2019-04-19T07:03:44.921Z,9.1
2019-04-19T07:04:54.297Z,8.7
2019-04-19T07:06:03.811Z,9.5
2019-04-19T07:08:18.144Z,8.8
2019-04-19T07:09:13.564Z,9.7
2019-04-19T07:10:17.077Z,9.5
2019-04-19T07:11:11.236Z,9.2
2019-04-19T07:12:11.890Z,9.0
2019-04-19T07:13:09.788Z,9.4
2019-04-19T07:14:03.945Z,9.5
2019-04-19T07:15:24.069Z,8.6
2019-04-19T07:16:19.293Z,9.5
2019-04-19T07:17:15.345Z,9.6
2019-04-19T07:18:20.027Z,8.9
2019-04-19T07:19:19.251Z,9.6
2019-04-19T07:20:14.899Z,9.3
2019-04-19T07:21:16.088Z,9.0
2019-04-19T07:22:14.410Z,9.6
2019-04-19T07:23:23.449Z,9.2
2019-04-19T07:24:32.232Z,9.8
2019-04-19T07:26:27.466Z,9.4
2019-04-19T07:27:19.901Z,9.8
2019-04-19T07:28:14.164Z,9.9
2019-04-19T07:29:08.394Z,9.2
2019-04-19T07:30:09.016Z,9.8
2019-04-19T07:31:11.486Z,9.4
2019-04-19T07:32:10.354Z,9.4
2019-04-19T07:33:15.486Z,8.8
2019-04-19T07:34:22.184Z,9.2
2019-04-19T07:35:32.057Z,8.9
2019-04-19T07:36:32.123Z,8.8
2019-04-19T07:37:30.387Z,8.9
2019-04-19T07:38:37.324Z,8.9
2019-04-19T07:39:36.980Z,9.9
2019-04-19T07:40:39.719Z,9.6
2019-04-19T07:41:34.064Z,9.6
2019-04-19T07:42:34.760Z,9.1
2019-04-19T07:43:35.478Z,8.5
2019-04-19T07:44:29.718Z,9.2
2019-04-19T07:45:32.000Z,9.4
2019-04-19T07:46:42.566Z,9.9
2019-04-19T07:47:34.160Z,9.8
2019-04-19T07:48:25.634Z,9.3
2019-04-19T07:49:25.249Z,9.3
2019-04-19T07:50:29.817Z,9.0
2019-04-19T07:51:33.633Z,8.8
2019-04-19T07:52:40.222Z,8.7
2019-04-19T07:53:36.914Z,9.0
2019-04-19T07:54:30.705Z,9.3
2019-04-19T07:55:33.431Z,8.7
2019-04-19T07:59:59.310Z,10.1
2019-04-19T08:00:59.919Z,8.9
2019-04-19T08:03:25.305Z,9.5
2019-04-19T08:05:05.835Z,9.1
2019-04-19T08:06:13.059Z,9.9
2019-04-19T08:08:17.585Z,9.3
2019-04-19T08:09:20.275Z,9.6
2019-04-19T08:10:28.307Z,10.9
2019-04-19T08:11:29.287Z,9.3
2019-04-19T08:13:33.431Z,9.7
2019-04-19T08:14:29.600Z,9.4
2019-04-19T08:16:18.000Z,9.4
2019-04-19T08:28:26.837Z,9.3
2019-04-19T08:29:27.499Z,9.0
2019-04-19T08:30:23.697Z,8.6
2019-04-19T08:31:19.515Z,8.8
2019-04-19T08:32:19.429Z,9.1
2019-04-19T08:33:21.018Z,9.2
2019-04-19T08:34:21.351Z,8.8
2019-04-19T08:35:22.172Z,8.6
2019-04-19T08:36:30.984Z,8.9
2019-04-19T08:37:29.917Z,9.5
2019-04-19T08:38:28.689Z,8.4
2019-04-19T08:39:41.699Z,8.7
2019-04-19T08:40:44.392Z,8.7
2019-04-19T08:41:46.727Z,8.6
2019-04-19T08:42:45.630Z,9.0
2019-04-19T08:43:45.073Z,8.5
2019-04-19T08:44:40.646Z,8.5
2019-04-19T08:45:30.004Z,8.6
2019-04-19T08:46:30.102Z,8.7
2019-04-19T08:47:35.598Z,8.1
2019-04-19T08:48:41.002Z,8.6
2019-04-19T08:49:36.969Z,8.2
2019-04-19T08:50:35.973Z,8.5
2019-04-19T08:51:36.678Z,9.0
2019-04-19T08:52:36.854Z,8.5
2019-04-19T08:53:46.208Z,8.7
2019-04-19T08:54:56.509Z,8.8
2019-04-19T08:55:54.382Z,8.1
2019-04-19T08:56:44.931Z,8.6
2019-04-19T08:57:37.796Z,8.5
2019-04-19T08:58:54.379Z,8.5
2019-04-19T08:59:59.226Z,8.9
2019-04-19T09:01:03.475Z,8.2
2019-04-19T09:02:00.974Z,8.1
2019-04-19T09:02:54.358Z,8.0
2019-04-19T09:04:06.367Z,8.9
2019-04-19T09:05:02.002Z,8.8
2019-04-19T09:06:27.806Z,8.1
2019-04-19T09:07:34.171Z,8.7
2019-04-19T09:08:07.459Z,8.9
2019-04-19T09:09:00.862Z,9.0
2019-04-19T09:10:23.782Z,8.3
2019-04-19T09:11:05.741Z,8.9
2019-04-19T09:12:12.309Z,9.0
2019-04-19T09:13:19.688Z,8.5
2019-04-19T09:14:13.699Z,8.1
2019-04-19T09:15:15.311Z,8.2
2019-04-19T09:16:12.790Z,7.7
2019-04-19T09:17:20.627Z,8.1
2019-04-19T09:18:38.874Z,9.4
2019-04-19T09:19:24.751Z,8.4
2019-04-19T09:20:21.139Z,9.1
2019-04-19T09:21:18.214Z,8.3
2019-04-19T09:22:22.325Z,8.9
2019-04-19T09:23:16.693Z,8.7
2019-04-19T09:24:10.837Z,8.6
2019-04-19T09:25:19.087Z,8.5
2019-04-19T09:26:23.693Z,8.0
2019-04-19T09:27:33.914Z,8.1
2019-04-19T09:28:37.489Z,7.6
2019-04-19T09:29:36.809Z,7.3
2019-04-19T09:30:32.124Z,8.1
2019-04-19T09:31:28.693Z,7.9
2019-04-19T09:32:19.893Z,8.7
2019-04-19T09:33:20.860Z,8.2
2019-04-19T09:34:16.627Z,7.8
2019-04-19T09:35:15.037Z,8.0
2019-04-19T09:36:17.703Z,7.3
2019-04-19T09:37:23.875Z,6.6
2019-04-19T09:38:28.636Z,6.7
2019-04-19T09:39:31.317Z,6.4
2019-04-19T09:40:29.372Z,6.6
2019-04-19T09:41:28.903Z,6.1
2019-04-19T09:42:30.362Z,5.9
2019-04-19T09:43:31.017Z,5.8
2019-04-19T09:44:27.992Z,5.5
2019-04-19T09:45:21.003Z,6.0
2019-04-19T09:46:21.614Z,5.8
2019-04-19T09:47:22.993Z,5.5
2019-04-19T09:48:42.049Z,5.8
2019-04-19T09:49:43.051Z,5.9
2019-04-19T09:50:39.173Z,5.5
2019-04-19T09:51:44.846Z,5.6
2019-04-19T09:52:47.627Z,6.3
2019-04-19T09:53:50.140Z,5.5
2019-04-19T09:54:51.440Z,5.6
2019-04-19T09:55:53.581Z,5.7
2019-04-19T09:56:44.320Z,5.5
2019-04-19T09:57:53.182Z,5.8
2019-04-19T09:58:46.481Z,6.1
2019-04-19T09:59:36.112Z,5.9
2019-04-19T10:00:33.584Z,6.0
2019-04-19T10:01:38.953Z,6.0
2019-04-19T10:02:42.661Z,5.3
2019-04-19T10:03:42.457Z,5.4
2019-04-19T10:04:35.814Z,4.9
2019-04-19T10:05:36.932Z,5.2
2019-04-19T10:06:38.507Z,5.4
2019-04-19T10:07:38.846Z,5.3
2019-04-19T10:08:40.097Z,6.3
2019-04-19T10:09:40.760Z,5.5
2019-04-19T10:10:43.931Z,5.6
2019-04-19T10:11:41.645Z,6.0
2019-04-19T10:12:43.437Z,5.5
2019-04-19T10:13:44.002Z,6.1
2019-04-19T10:14:43.877Z,5.5
2019-04-19T10:15:44.440Z,5.7
2019-04-19T10:16:46.393Z,5.7
2019-04-19T10:17:46.770Z,5.5
2019-04-19T10:18:54.361Z,5.9
2019-04-19T10:19:48.521Z,6.3
2019-04-19T10:20:48.882Z,6.3
2019-04-19T10:21:49.452Z,6.9
2019-04-19T10:22:49.531Z,6.9
2019-04-19T10:23:50.203Z,7.0
2019-04-19T10:24:52.903Z,7.5
2019-04-19T10:25:54.964Z,6.0
2019-04-19T10:26:52.591Z,6.3
2019-04-19T10:27:53.582Z,6.0
2019-04-19T10:28:53.700Z,6.1
2019-04-19T10:29:55.396Z,4.9
2019-04-19T10:30:55.100Z,4.8
2019-04-19T10:31:57.145Z,4.8
2019-04-19T10:32:56.499Z,4.4
2019-04-19T10:34:00.259Z,5.3
2019-04-19T10:34:58.883Z,5.7
2019-04-19T10:35:58.602Z,5.8
2019-04-19T10:37:00.315Z,5.4
2019-04-19T10:38:00.007Z,4.8
2019-04-19T10:39:01.385Z,5.2
2019-04-19T10:40:02.042Z,5.4
2019-04-19T10:41:02.112Z,6.0
2019-04-19T10:42:04.055Z,5.4
2019-04-19T10:43:03.520Z,5.3
2019-04-19T10:44:12.883Z,5.8
2019-04-19T10:45:05.947Z,5.5
2019-04-19T10:46:06.726Z,5.2
2019-04-19T10:47:07.045Z,4.8
2019-04-19T10:48:07.576Z,4.9
2019-04-19T10:49:14.830Z,5.0
2019-04-19T10:50:24.410Z,4.9
2019-04-19T10:51:10.553Z,4.0
2019-04-19T10:52:10.379Z,4.6
2019-04-19T10:53:10.527Z,4.1
2019-04-19T10:54:11.233Z,4.2
2019-04-19T10:55:11.941Z,4.5
2019-04-19T10:56:12.638Z,4.6
2019-04-19T10:57:14.449Z,4.7
2019-04-19T10:58:14.934Z,4.8
2019-04-19T10:59:14.755Z,4.5
2019-04-19T11:00:15.656Z,5.1
2019-04-19T11:01:16.153Z,5.2
2019-04-19T11:02:17.894Z,5.0
2019-04-19T11:03:17.556Z,5.3
2019-04-19T11:04:18.258Z,5.1
2019-04-19T11:05:18.959Z,4.8
2019-04-19T11:06:19.663Z,4.6
2019-04-19T11:07:21.392Z,4.6
2019-04-19T11:08:22.357Z,4.9
2019-04-19T11:09:22.800Z,4.5
2019-04-19T11:10:22.470Z,5.9
2019-04-19T11:11:23.572Z,5.3
2019-04-19T11:12:24.040Z,5.0
2019-04-19T11:13:27.417Z,4.9
2019-04-19T11:14:25.964Z,4.6
2019-04-19T11:15:26.634Z,4.5
2019-04-19T11:16:26.822Z,4.9
2019-04-19T11:17:27.717Z,5.2
2019-04-19T11:18:28.232Z,4.9
2019-04-19T11:19:48.385Z,5.9
2019-04-19T11:20:38.454Z,5.0
2019-04-19T11:21:31.662Z,5.1
2019-04-19T11:22:32.098Z,4.4
2019-04-19T11:23:31.726Z,5.0
2019-04-19T11:24:32.427Z,5.0
2019-04-19T11:25:33.381Z,4.9
2019-04-19T11:26:34.876Z,5.0
2019-04-19T11:27:35.226Z,5.9
2019-04-19T11:28:35.235Z,5.0
2019-04-19T11:29:36.520Z,5.3
2019-04-19T11:30:37.226Z,5.0
2019-04-19T11:31:37.339Z,4.8
2019-04-19T11:32:38.053Z,4.9
2019-04-19T11:33:39.188Z,5.4
2019-04-19T11:34:39.461Z,4.6
2019-04-19T11:35:41.290Z,4.3
2019-04-19T11:36:41.795Z,4.4
2019-04-19T11:37:42.642Z,5.5
2019-04-19T11:38:43.070Z,4.0
2019-04-19T11:39:43.746Z,4.7
2019-04-19T11:40:44.921Z,4.3
2019-04-19T11:41:45.188Z,4.9
2019-04-19T11:42:46.208Z,4.4
2019-04-19T11:43:47.554Z,4.6
2019-04-19T11:44:47.726Z,4.8
2019-04-19T11:45:48.163Z,4.8
2019-04-19T11:46:49.902Z,4.2
2019-04-19T11:47:49.359Z,5.0
2019-04-19T11:48:50.067Z,4.7
2019-04-19T11:49:51.360Z,4.6
2019-04-19T11:50:51.853Z,4.8
2019-04-19T11:51:53.198Z,5.0
2019-04-19T11:52:53.625Z,4.5
2019-04-19T11:53:54.486Z,4.1
2019-04-19T11:54:55.163Z,4.9
2019-04-19T11:55:56.248Z,4.0
2019-04-19T11:57:00.361Z,4.4
2019-04-19T11:57:57.269Z,6.0
2019-04-19T11:58:58.323Z,4.7
2019-04-19T11:59:59.375Z,4.8
2019-04-19T12:01:00.192Z,4.5
2019-04-19T12:02:00.072Z,4.8
2019-04-19T12:03:02.181Z,5.8
2019-04-19T12:04:01.548Z,6.4
2019-04-19T12:05:13.748Z,4.6
2019-04-19T12:06:02.924Z,5.2
2019-04-19T12:07:03.624Z,4.6
2019-04-19T12:08:04.468Z,5.1
2019-04-19T12:09:05.036Z,4.5
2019-04-19T12:10:06.119Z,4.8
2019-04-19T12:11:06.557Z,4.7
2019-04-19T12:12:07.438Z,4.7
2019-04-19T12:13:08.836Z,5.3
2019-04-19T12:14:08.547Z,5.0
2019-04-19T12:15:10.306Z,5.1
2019-04-19T12:16:10.846Z,5.6
2019-04-19T12:17:11.113Z,5.1
2019-04-19T12:18:12.384Z,5.6
2019-04-19T12:19:12.136Z,5.2
2019-04-19T12:20:13.156Z,4.8
2019-04-19T12:21:13.562Z,5.3
2019-04-19T12:22:14.895Z,5.4
2019-04-19T12:23:15.767Z,5.4
2019-04-19T12:24:15.534Z,5.3
2019-04-19T12:25:17.609Z,5.7
2019-04-19T12:26:17.753Z,5.3
2019-04-19T12:27:17.950Z,5.9
2019-04-19T12:28:19.538Z,5.3
2019-04-19T12:29:29.973Z,5.5
2019-04-19T12:30:19.836Z,5.6
2019-04-19T12:31:21.228Z,5.7
2019-04-19T12:32:21.438Z,5.4
2019-04-19T12:33:21.865Z,5.4
2019-04-19T12:34:23.652Z,4.8
2019-04-19T12:35:23.262Z,5.5
2019-04-19T12:36:23.979Z,5.3
2019-04-19T12:37:24.863Z,5.6
2019-04-19T12:38:26.107Z,5.3
2019-04-19T12:39:27.152Z,5.2
2019-04-19T12:40:27.698Z,5.3
2019-04-19T12:41:28.376Z,5.5
2019-04-19T12:42:29.083Z,5.7
2019-04-19T12:43:29.975Z,7.6
2019-04-19T12:44:31.081Z,6.5
2019-04-19T12:45:31.191Z,5.8
2019-04-19T12:46:32.862Z,5.6
2019-04-19T12:47:33.145Z,6.3
2019-04-19T12:48:33.302Z,6.6
2019-04-19T12:49:35.163Z,7.1
2019-04-19T12:50:37.191Z,6.6
2019-04-19T12:51:36.438Z,6.6
2019-04-19T12:52:36.112Z,6.3
2019-04-19T12:53:37.047Z,6.5
2019-04-19T12:54:38.140Z,7.5
2019-04-19T12:55:38.216Z,6.8
2019-04-19T12:56:40.145Z,7.1
2019-04-19T12:57:39.623Z,7.0
2019-04-19T12:58:40.327Z,6.3
2019-04-19T12:59:42.162Z,7.1
2019-04-19T13:00:41.814Z,7.8
2019-04-19T13:01:42.445Z,7.9
2019-04-19T13:02:44.991Z,7.8
2019-04-19T13:03:44.518Z,7.7
2019-04-19T13:04:44.545Z,7.9
2019-04-19T13:05:45.734Z,8.1
2019-04-19T13:06:46.601Z,7.1
2019-04-19T13:07:47.310Z,7.0
2019-04-19T13:08:47.843Z,7.1
2019-04-19T13:09:48.882Z,7.5
2019-04-19T13:10:49.084Z,6.8
2019-04-19T13:11:50.486Z,6.8
2019-04-19T13:12:50.152Z,7.4
2019-04-19T13:13:51.946Z,6.9
2019-04-19T13:14:51.558Z,7.5
2019-04-19T13:15:52.360Z,7.2
2019-04-19T13:16:52.960Z,6.5
2019-04-19T13:17:54.036Z,6.9
2019-04-19T13:18:54.371Z,7.5
2019-04-19T13:20:05.076Z,7.0
2019-04-19T13:20:55.929Z,8.1
2019-04-19T13:21:56.638Z,7.6
2019-04-19T13:22:58.568Z,7.7
2019-04-19T13:23:58.384Z,7.8
2019-04-19T13:24:59.443Z,7.7
2019-04-19T13:25:59.581Z,9.2
2019-04-19T13:27:01.331Z,7.8
2019-04-19T13:28:01.707Z,8.1
2019-04-19T13:29:01.813Z,8.0
2019-04-19T13:30:10.567Z,7.1
2019-04-19T13:31:04.174Z,8.1
2019-04-19T13:32:03.807Z,6.9
2019-04-19T13:33:04.365Z,7.3
2019-04-19T13:34:05.067Z,7.0
2019-04-19T13:35:05.772Z,8.2
2019-04-19T13:36:06.922Z,7.4
2019-04-19T13:37:07.400Z,7.5
2019-04-19T13:38:07.880Z,8.3
2019-04-19T13:39:09.074Z,7.8
2019-04-19T13:40:10.295Z,7.9
2019-04-19T13:41:11.202Z,9.5
2019-04-19T13:42:10.890Z,8.3
2019-04-19T13:43:11.395Z,7.2
2019-04-19T13:44:12.095Z,9.0
2019-04-19T13:45:19.818Z,9.0
2019-04-19T13:46:14.730Z,8.7
2019-04-19T13:47:14.205Z,8.7
2019-04-19T13:48:14.903Z,8.5
2019-04-19T13:49:16.806Z,9.5
2019-04-19T13:50:24.070Z,8.9
2019-04-19T13:51:17.022Z,9.6
2019-04-19T13:52:18.748Z,8.3
2019-04-19T13:53:18.534Z,8.7
2019-04-19T13:54:19.130Z,8.8
2019-04-19T13:55:20.898Z,8.9
2019-04-19T13:56:20.554Z,8.4
2019-04-19T13:57:21.713Z,8.6
2019-04-19T13:58:22.092Z,8.9
2019-04-19T13:59:37.670Z,8.3
2019-04-19T14:00:24.480Z,7.4
2019-04-19T14:01:24.796Z,8.8
2019-04-19T14:02:25.361Z,8.6
2019-04-19T14:03:25.657Z,8.5
2019-04-19T14:04:26.152Z,9.0
2019-04-19T14:05:27.858Z,9.1
2019-04-19T14:06:28.607Z,9.3
2019-04-19T14:07:28.321Z,8.3
2019-04-19T14:08:31.080Z,8.8
2019-04-19T14:09:29.667Z,8.3
2019-04-19T14:10:30.828Z,6.9
2019-04-19T14:11:31.134Z,7.5
2019-04-19T14:12:31.768Z,8.2
2019-04-19T14:13:32.933Z,7.1
2019-04-19T14:14:33.175Z,7.5
2019-04-19T14:15:34.997Z,7.9
2019-04-19T14:16:35.596Z,7.7
2019-04-19T14:17:36.019Z,6.9
2019-04-19T14:18:37.146Z,7.3
2019-04-19T14:19:36.699Z,6.6
2019-04-19T14:20:43.479Z,6.9
2019-04-19T14:21:39.187Z,7.2
2019-04-19T14:22:39.403Z,7.5